createdAt,value
2023-02-15T00:01:31.365Z,92608.50
2023-02-15T00:03:57.966Z,92602.16
2023-02-15T00:06:24.817Z,92603.81
2023-02-15T00:08:51.524Z,92599.84
2023-02-15T00:11:38.891Z,92599.50
2023-02-15T00:14:09.180Z,92603.97
2023-02-15T00:16:36.319Z,92600.19
2023-02-15T00:19:03.548Z,92603.28
2023-02-15T00:21:31.604Z,92597.47
2023-02-15T00:23:59.145Z,92596.34
2023-02-15T00:26:26.047Z,92601.47
2023-02-15T00:28:52.868Z,92604.69
2023-02-15T00:31:19.729Z,92600.19
2023-02-15T00:33:46.494Z,92598.25
2023-02-15T00:36:13.385Z,92585.25
2023-02-15T00:38:40.250Z,92597.38
2023-02-15T00:41:07.814Z,92596.72
2023-02-15T00:43:35.087Z,92593.38
2023-02-15T00:46:02.293Z,92600.44
2023-02-15T00:48:29.329Z,92591.53
2023-02-15T00:50:59.692Z,92591.13
2023-02-15T00:53:27.045Z,92587.97
2023-02-15T00:55:54.059Z,92592.72
2023-02-15T00:58:20.657Z,92588.91
2023-02-15T01:00:47.786Z,92581.47
2023-02-15T01:03:15.815Z,92589.25
2023-02-15T01:05:42.561Z,92582.28
2023-02-15T01:08:09.241Z,92580.00
2023-02-15T01:10:36.152Z,92564.50
2023-02-15T01:13:02.805Z,92570.50
2023-02-15T01:15:29.585Z,92565.16
2023-02-15T01:17:56.559Z,92572.59
2023-02-15T01:20:25.272Z,92577.81
2023-02-15T01:22:52.577Z,92576.22
2023-02-15T01:25:19.976Z,92579.53
2023-02-15T01:27:46.733Z,92573.59
2023-02-15T01:30:14.045Z,92573.00
2023-02-15T01:32:40.944Z,92576.00
2023-02-15T01:35:07.949Z,92573.81
2023-02-15T01:37:34.792Z,92569.66
2023-02-15T01:40:02.237Z,92575.03
2023-02-15T01:42:29.334Z,92568.13
2023-02-15T01:45:00.316Z,92568.53
2023-02-15T01:47:29.957Z,92571.97
2023-02-15T01:50:15.084Z,92571.44
2023-02-15T01:52:45.668Z,92570.91
2023-02-15T01:55:13.632Z,92576.94
2023-02-15T01:57:40.448Z,92587.00
2023-02-15T02:00:07.590Z,92587.06
2023-02-15T02:02:34.208Z,92584.44
2023-02-15T02:05:07.407Z,92585.94
2023-02-15T02:07:36.205Z,92591.66
2023-02-15T02:10:03.861Z,92582.03
2023-02-15T02:12:30.842Z,92582.09
2023-02-15T02:14:57.563Z,92599.34
2023-02-15T02:17:48.936Z,92583.25
2023-02-15T02:20:43.568Z,92587.34
2023-02-15T02:23:25.273Z,92588.84
2023-02-15T02:25:51.914Z,92581.78
2023-02-15T02:28:18.435Z,92589.22
2023-02-15T02:31:09.219Z,92589.22
2023-02-15T02:33:53.837Z,92597.72
2023-02-15T02:36:43.217Z,92595.97
2023-02-15T02:39:23.020Z,92589.56
2023-02-15T02:41:49.613Z,92592.09
2023-02-15T02:44:46.465Z,92595.63
2023-02-15T02:47:30.613Z,92600.81
2023-02-15T02:50:08.572Z,92592.88
2023-02-15T02:53:01.644Z,92586.34
2023-02-15T02:55:43.953Z,92590.94
2023-02-15T02:58:37.321Z,92594.72
2023-02-15T03:01:09.936Z,92593.47
2023-02-15T03:03:39.121Z,92595.00
2023-02-15T03:06:42.428Z,92602.75
2023-02-15T03:09:19.695Z,92607.41
2023-02-15T03:11:46.497Z,92614.31
2023-02-15T03:14:14.267Z,92614.72
2023-02-15T03:16:41.252Z,92615.75
2023-02-15T03:19:10.788Z,92607.63
2023-02-15T03:21:50.505Z,92614.94
2023-02-15T03:24:21.784Z,92622.25
2023-02-15T03:26:49.456Z,92629.41
2023-02-15T03:29:16.559Z,92632.44
2023-02-15T03:31:44.519Z,92635.63
2023-02-15T03:34:12.736Z,92624.06
2023-02-15T03:36:51.700Z,92623.44
2023-02-15T03:39:31.185Z,92625.16
2023-02-15T03:42:13.431Z,92630.03
2023-02-15T03:44:59.610Z,92631.31
2023-02-15T03:47:31.615Z,92633.00
2023-02-15T03:50:33.918Z,92631.41
2023-02-15T03:53:01.256Z,92626.94
2023-02-15T03:55:28.440Z,92627.44
2023-02-15T03:58:13.844Z,92619.97
2023-02-15T04:01:02.720Z,92625.41
2023-02-15T04:04:00.149Z,92629.81
2023-02-15T04:06:26.773Z,92624.53
2023-02-15T04:09:12.158Z,92619.41
2023-02-15T04:11:38.825Z,92615.88
2023-02-15T04:14:25.421Z,92626.47
2023-02-15T04:16:52.219Z,92628.84
2023-02-15T04:19:37.522Z,92636.84
2023-02-15T04:22:22.426Z,92634.50
2023-02-15T04:25:07.625Z,92638.09
2023-02-15T04:27:34.411Z,92640.84
2023-02-15T04:30:01.142Z,92637.53
2023-02-15T04:32:28.469Z,92646.53
2023-02-15T04:34:55.162Z,92645.63
2023-02-15T04:37:21.839Z,92643.75
2023-02-15T04:39:48.771Z,92643.22
2023-02-15T04:42:15.416Z,92652.41
2023-02-15T04:44:42.826Z,92658.88
2023-02-15T04:47:09.538Z,92663.22
2023-02-15T04:49:36.249Z,92658.81
2023-02-15T04:52:02.899Z,92665.66
2023-02-15T04:54:29.646Z,92668.25
2023-02-15T04:56:56.336Z,92670.63
2023-02-15T04:59:22.947Z,92670.28
2023-02-15T05:01:50.424Z,92665.16
2023-02-15T05:04:17.274Z,92664.47
2023-02-15T05:06:43.981Z,92674.25
2023-02-15T05:09:12.294Z,92673.34
2023-02-15T05:11:39.043Z,92681.53
2023-02-15T05:14:05.707Z,92688.25
2023-02-15T05:16:32.518Z,92687.03
2023-02-15T05:18:59.203Z,92680.63
2023-02-15T05:21:25.841Z,92689.97
2023-02-15T05:23:52.525Z,92687.03
2023-02-15T05:26:39.640Z,92697.19
2023-02-15T05:29:06.418Z,92696.16
2023-02-15T05:31:33.528Z,92698.94
2023-02-15T05:34:00.198Z,92706.28
2023-02-15T05:36:26.958Z,92711.00
2023-02-15T05:38:53.729Z,92718.53
2023-02-15T05:41:20.343Z,92719.44
2023-02-15T05:43:47.088Z,92709.47
2023-02-15T05:46:13.812Z,92715.97
2023-02-15T05:48:40.553Z,92715.59
2023-02-15T05:51:14.073Z,92715.00
2023-02-15T05:53:40.739Z,92711.56
2023-02-15T05:56:11.927Z,92717.34
2023-02-15T05:58:39.917Z,92714.88
2023-02-15T06:01:16.812Z,92716.22
2023-02-15T06:03:43.632Z,92712.84
2023-02-15T06:06:10.304Z,92719.22
2023-02-15T06:08:37.421Z,92725.72
2023-02-15T06:11:04.117Z,92707.66
2023-02-15T06:13:31.137Z,92704.72
2023-02-15T06:15:57.746Z,92710.47
2023-02-15T06:18:24.394Z,92705.34
2023-02-15T06:20:51.162Z,92709.78
2023-02-15T06:23:17.808Z,92718.44
2023-02-15T06:25:45.744Z,92724.69
2023-02-15T06:28:12.362Z,92721.06
2023-02-15T06:30:39.047Z,92719.66
2023-02-15T06:33:05.822Z,92718.31
2023-02-15T06:35:32.530Z,92723.94
2023-02-15T06:37:59.314Z,92718.13
2023-02-15T06:40:25.955Z,92718.13
2023-02-15T06:42:52.676Z,92710.00
2023-02-15T06:45:19.383Z,92709.06
2023-02-15T06:47:46.070Z,92717.72
2023-02-15T06:50:12.781Z,92717.72
2023-02-15T06:52:39.525Z,92717.97
2023-02-15T06:55:07.202Z,92714.63
2023-02-15T06:57:34.267Z,92712.50
2023-02-15T07:00:01.083Z,92706.28
2023-02-15T07:02:27.851Z,92711.75
2023-02-15T07:04:54.633Z,92704.56
2023-02-15T07:07:21.363Z,92704.59
2023-02-15T07:09:48.189Z,92712.59
2023-02-15T07:12:33.253Z,92709.19
2023-02-15T07:15:00.179Z,92705.78
2023-02-15T07:17:37.060Z,92708.19
2023-02-15T07:20:09.052Z,92709.78
2023-02-15T07:22:37.335Z,92718.91
2023-02-15T07:25:05.353Z,92710.72
2023-02-15T07:27:32.628Z,92710.72
2023-02-15T07:29:59.738Z,92710.72
2023-02-15T07:32:29.882Z,92716.34
2023-02-15T07:34:56.629Z,92703.72
2023-02-15T07:37:23.423Z,92697.44
2023-02-15T07:39:50.200Z,92690.34
2023-02-15T07:42:16.876Z,92699.47
2023-02-15T07:44:43.568Z,92701.84
2023-02-15T07:47:10.253Z,92692.78
2023-02-15T07:49:37.108Z,92694.38
2023-02-15T07:52:03.820Z,92700.72
2023-02-15T07:54:30.706Z,92702.88
2023-02-15T07:56:57.337Z,92695.94
2023-02-15T07:59:25.151Z,92703.06
2023-02-15T08:01:53.901Z,92694.31
2023-02-15T08:04:20.602Z,92694.72
2023-02-15T08:06:47.293Z,92688.16
2023-02-15T08:09:14.072Z,92694.19
2023-02-15T08:11:41.748Z,92691.41
2023-02-15T08:14:09.330Z,92688.38
2023-02-15T08:16:47.119Z,92690.81
2023-02-15T08:19:23.581Z,92694.16
2023-02-15T08:21:52.328Z,92689.22
2023-02-15T08:24:21.140Z,92688.56
2023-02-15T08:26:48.711Z,92692.03
2023-02-15T08:29:16.144Z,92692.81
2023-02-15T08:31:43.230Z,92688.38
2023-02-15T08:34:11.511Z,92690.16
2023-02-15T08:36:38.439Z,92693.53
2023-02-15T08:39:06.026Z,92683.72
2023-02-15T08:41:35.028Z,92685.56
2023-02-15T08:44:03.037Z,92676.78
2023-02-15T08:46:31.916Z,92671.66
2023-02-15T08:48:58.591Z,92678.50
2023-02-15T08:51:26.974Z,92677.44
2023-02-15T08:53:55.062Z,92679.13
2023-02-15T08:56:26.911Z,92680.50
2023-02-15T08:58:54.190Z,92686.16
2023-02-15T09:01:23.129Z,92687.09
2023-02-15T09:03:51.431Z,92689.78
2023-02-15T09:06:18.198Z,92689.53
2023-02-15T09:08:44.900Z,92679.94
2023-02-15T09:11:23.842Z,92683.53
2023-02-15T09:14:00.806Z,92675.88
2023-02-15T09:16:29.534Z,92677.69
2023-02-15T09:18:58.461Z,92682.91
2023-02-15T09:21:25.777Z,92677.97
2023-02-15T09:23:53.671Z,92678.38
2023-02-15T09:26:21.361Z,92675.91
2023-02-15T09:28:49.405Z,92679.97
2023-02-15T09:31:16.823Z,92671.59
2023-02-15T09:33:44.702Z,92661.34
2023-02-15T09:36:22.918Z,92657.66
2023-02-15T09:38:58.382Z,92658.72
2023-02-15T09:41:28.083Z,92653.94
2023-02-15T09:44:06.661Z,92656.38
2023-02-15T09:46:46.226Z,92654.81
2023-02-15T09:49:24.472Z,92661.75
2023-02-15T09:52:43.393Z,92649.91
2023-02-15T09:55:32.515Z,92662.75
2023-02-15T09:58:06.380Z,92662.63
2023-02-15T10:00:42.601Z,92653.34
2023-02-15T10:03:46.734Z,92655.69
2023-02-15T10:06:16.875Z,92644.38
2023-02-15T10:09:40.661Z,92646.00
2023-02-15T10:12:22.206Z,92644.28
2023-02-15T10:15:08.334Z,92640.75
2023-02-15T10:17:51.231Z,92631.91
2023-02-15T10:20:40.038Z,92634.06
2023-02-15T10:23:37.971Z,92637.00
2023-02-15T10:26:16.990Z,92631.50
2023-02-15T10:28:53.598Z,92625.97
2023-02-15T10:31:33.914Z,92633.28
2023-02-15T10:34:12.796Z,92629.84
2023-02-15T10:36:58.881Z,92623.28
2023-02-15T10:39:55.048Z,92627.13
2023-02-15T10:42:25.173Z,92622.34
2023-02-15T10:44:57.464Z,92621.81
2023-02-15T10:48:01.590Z,92619.88
2023-02-15T10:50:28.196Z,92616.75
2023-02-15T10:53:20.260Z,92608.00
2023-02-15T10:56:04.779Z,92613.72
2023-02-15T10:58:40.104Z,92609.28
2023-02-15T11:01:21.007Z,92598.69
2023-02-15T11:03:53.521Z,92594.84
2023-02-15T11:06:20.568Z,92594.28
2023-02-15T11:09:04.929Z,92589.63
2023-02-15T11:11:43.417Z,92584.56
2023-02-15T11:14:30.202Z,92580.38
2023-02-15T11:17:00.231Z,92579.13
2023-02-15T11:19:41.922Z,92571.47
2023-02-15T11:22:10.627Z,92583.50
2023-02-15T11:24:43.341Z,92586.22
2023-02-15T11:27:23.053Z,92586.66
2023-02-15T11:30:10.522Z,92576.78
2023-02-15T11:32:42.014Z,92576.78
2023-02-15T11:35:21.583Z,92571.06
2023-02-15T11:37:57.501Z,92574.63
2023-02-15T11:40:33.522Z,92575.50
2023-02-15T11:43:03.204Z,92570.50
2023-02-15T11:45:34.025Z,92572.06
2023-02-15T11:48:01.079Z,92569.41
2023-02-15T11:50:32.458Z,92565.13
2023-02-15T11:53:07.572Z,92557.91
2023-02-15T11:55:36.117Z,92557.41
2023-02-15T11:58:39.139Z,92553.38
2023-02-15T12:01:17.742Z,92548.41
2023-02-15T12:03:45.618Z,92540.66
2023-02-15T12:06:39.783Z,92545.84
2023-02-15T12:09:33.277Z,92545.91
2023-02-15T12:12:22.464Z,92541.94
2023-02-15T12:14:50.732Z,92537.19
2023-02-15T12:17:17.449Z,92538.53
2023-02-15T12:19:44.736Z,92537.81
2023-02-15T12:22:26.422Z,92530.06
2023-02-15T12:24:55.508Z,92530.13
2023-02-15T12:27:33.299Z,92535.19
2023-02-15T12:30:08.874Z,92524.97
2023-02-15T12:32:37.205Z,92528.84
2023-02-15T12:35:10.707Z,92529.06
2023-02-15T12:37:37.448Z,92528.13
2023-02-15T12:40:21.149Z,92524.94
2023-02-15T12:42:47.797Z,92517.06
2023-02-15T12:45:31.827Z,92522.09
2023-02-15T12:48:13.572Z,92513.47
2023-02-15T12:50:47.545Z,92515.03
2023-02-15T12:53:31.801Z,92509.50
2023-02-15T12:56:02.737Z,92514.97
2023-02-15T12:58:31.333Z,92503.88
2023-02-15T13:01:10.248Z,92504.84
2023-02-15T13:03:38.870Z,92504.13
2023-02-15T13:06:09.458Z,92502.31
2023-02-15T13:08:40.576Z,92511.16
2023-02-15T13:11:11.374Z,92498.13
2023-02-15T13:13:56.320Z,92498.13
2023-02-15T13:16:43.211Z,92494.28
2023-02-15T13:19:34.593Z,92491.09
2023-02-15T13:22:03.350Z,92497.75
2023-02-15T13:24:40.848Z,92493.69
2023-02-15T13:27:15.769Z,92495.00
2023-02-15T13:29:54.337Z,92491.78
2023-02-15T13:32:38.876Z,92480.09
2023-02-15T13:35:08.098Z,92490.03
2023-02-15T13:37:47.205Z,92481.22
2023-02-15T13:40:36.678Z,92485.88
2023-02-15T13:43:12.839Z,92479.69
2023-02-15T13:45:48.709Z,92482.53
2023-02-15T13:48:31.413Z,92488.00
2023-02-15T13:51:12.897Z,92490.31
2023-02-15T13:54:16.444Z,92503.44
2023-02-15T13:57:35.169Z,92506.16
2023-02-15T14:00:21.973Z,92499.34
2023-02-15T14:02:51.400Z,92503.56
2023-02-15T14:05:35.777Z,92503.84
2023-02-15T14:08:21.094Z,92510.41
2023-02-15T14:11:21.324Z,92507.25
2023-02-15T14:14:06.764Z,92504.63
2023-02-15T14:17:07.309Z,92510.38
2023-02-15T14:19:50.997Z,92521.91
2023-02-15T14:22:37.291Z,92531.31
2023-02-15T14:25:29.882Z,92525.81
2023-02-15T14:28:22.749Z,92521.81
2023-02-15T14:30:50.462Z,92517.38
2023-02-15T14:33:26.589Z,92529.28
2023-02-15T14:35:53.318Z,92525.44
2023-02-15T14:38:27.249Z,92526.38
2023-02-15T14:41:04.893Z,92523.88
2023-02-15T14:43:56.536Z,92531.66
2023-02-15T14:46:40.110Z,92533.47
2023-02-15T14:49:21.961Z,92542.22
2023-02-15T14:51:48.626Z,92531.53
2023-02-15T14:54:18.420Z,92534.38
2023-02-15T14:56:46.002Z,92543.19
2023-02-15T14:59:12.713Z,92547.00
2023-02-15T15:01:39.440Z,92551.75
2023-02-15T15:04:23.451Z,92546.75
2023-02-15T15:07:15.472Z,92549.94
2023-02-15T15:09:42.598Z,92539.63
2023-02-15T15:12:27.459Z,92544.81
2023-02-15T15:14:55.215Z,92553.50
2023-02-15T15:17:34.164Z,92559.22
2023-02-15T15:20:02.301Z,92562.44
2023-02-15T15:22:29.675Z,92557.69
2023-02-15T15:25:00.457Z,92563.66
2023-02-15T15:27:51.654Z,92553.31
2023-02-15T15:30:24.579Z,92559.69
2023-02-15T15:32:54.733Z,92560.41
2023-02-15T15:35:55.910Z,92556.59
2023-02-15T15:38:46.659Z,92557.53
2023-02-15T15:41:19.152Z,92565.91
2023-02-15T15:43:51.180Z,92566.72
2023-02-15T15:46:25.336Z,92563.38
2023-02-15T15:48:52.114Z,92566.91
2023-02-15T15:51:34.222Z,92564.72
2023-02-15T15:54:01.315Z,92572.28
2023-02-15T15:56:33.077Z,92571.66
2023-02-15T15:59:05.744Z,92574.97
2023-02-15T16:01:44.963Z,92582.19
2023-02-15T16:04:12.996Z,92575.88
2023-02-15T16:06:40.316Z,92578.72
2023-02-15T16:09:13.412Z,92581.81
2023-02-15T16:11:40.936Z,92588.19
2023-02-15T16:14:15.627Z,92591.81
2023-02-15T16:16:42.664Z,92586.09
2023-02-15T16:19:23.362Z,92589.59
2023-02-15T16:21:50.274Z,92584.97
2023-02-15T16:24:35.752Z,92600.88
2023-02-15T16:27:05.265Z,92600.13
2023-02-15T16:29:33.401Z,92597.44
2023-02-15T16:32:15.964Z,92605.69
2023-02-15T16:35:15.993Z,92612.44
2023-02-15T16:37:42.566Z,92607.97
2023-02-15T16:40:24.533Z,92606.69
2023-02-15T16:42:55.418Z,92609.75
2023-02-15T16:45:23.393Z,92599.97
2023-02-15T16:47:51.742Z,92611.78
2023-02-15T16:50:27.719Z,92612.63
2023-02-15T16:52:54.459Z,92609.16
2023-02-15T16:55:28.987Z,92610.25
2023-02-15T16:57:58.202Z,92616.63
2023-02-15T17:00:26.813Z,92615.00
2023-02-15T17:03:01.185Z,92619.38
2023-02-15T17:05:41.598Z,92618.28
2023-02-15T17:08:19.123Z,92620.72
2023-02-15T17:10:59.219Z,92619.63
2023-02-15T17:13:26.565Z,92614.69
2023-02-15T17:15:59.311Z,92613.22
2023-02-15T17:18:30.626Z,92616.66
2023-02-15T17:21:21.554Z,92616.41
2023-02-15T17:23:49.849Z,92619.38
2023-02-15T17:26:24.301Z,92609.78
2023-02-15T17:28:57.252Z,92607.88
2023-02-15T17:31:26.194Z,92600.44
2023-02-15T17:33:55.400Z,92610.28
2023-02-15T17:36:23.647Z,92607.81
2023-02-15T17:38:59.536Z,92608.09
2023-02-15T17:41:30.020Z,92605.41
2023-02-15T17:43:56.745Z,92602.28
2023-02-15T17:46:23.774Z,92597.34
2023-02-15T17:48:54.887Z,92603.44
2023-02-15T17:51:21.891Z,92607.22
2023-02-15T17:54:07.175Z,92608.34
2023-02-15T17:56:34.416Z,92597.69
2023-02-15T17:59:01.120Z,92601.34
2023-02-15T18:01:46.358Z,92603.34
2023-02-15T18:04:32.119Z,92607.84
2023-02-15T18:07:17.328Z,92606.56
2023-02-15T18:10:02.556Z,92611.69
2023-02-15T18:12:33.770Z,92622.03
2023-02-15T18:15:01.458Z,92621.22
2023-02-15T18:17:34.999Z,92625.56
2023-02-15T18:20:07.116Z,92626.91
2023-02-15T18:22:33.947Z,92634.88
2023-02-15T18:25:00.794Z,92633.75
2023-02-15T18:27:27.581Z,92638.22
2023-02-15T18:29:54.238Z,92633.72
2023-02-15T18:32:28.961Z,92631.69
2023-02-15T18:34:56.587Z,92637.94
2023-02-15T18:37:23.268Z,92625.25
2023-02-15T18:39:54.506Z,92627.63
2023-02-15T18:42:36.947Z,92629.78
2023-02-15T18:45:18.924Z,92637.03
2023-02-15T18:47:46.010Z,92633.66
2023-02-15T18:50:16.893Z,92642.75
2023-02-15T18:52:43.869Z,92647.97
2023-02-15T18:55:21.982Z,92641.94
2023-02-15T18:57:49.663Z,92642.34
2023-02-15T19:00:25.661Z,92645.53
2023-02-15T19:02:52.461Z,92639.16
2023-02-15T19:05:19.203Z,92646.03
2023-02-15T19:07:48.488Z,92637.53
2023-02-15T19:10:17.123Z,92644.09
2023-02-15T19:12:44.127Z,92641.03
2023-02-15T19:15:18.308Z,92641.94
2023-02-15T19:17:45.040Z,92640.81
2023-02-15T19:20:18.704Z,92643.22
2023-02-15T19:22:46.351Z,92650.00
2023-02-15T19:25:20.891Z,92647.44
2023-02-15T19:27:47.594Z,92641.31
2023-02-15T19:30:19.106Z,92650.72
2023-02-15T19:32:46.043Z,92646.59
2023-02-15T19:35:16.933Z,92642.06
2023-02-15T19:37:44.793Z,92646.78
2023-02-15T19:40:22.361Z,92646.38
2023-02-15T19:42:49.375Z,92649.59
2023-02-15T19:45:20.844Z,92640.91
2023-02-15T19:47:51.839Z,92641.09
2023-02-15T19:50:19.588Z,92637.56
2023-02-15T19:52:46.605Z,92630.81
2023-02-15T19:55:17.725Z,92633.59
2023-02-15T19:57:44.361Z,92634.94
2023-02-15T20:00:22.652Z,92637.28
2023-02-15T20:02:49.619Z,92634.75
2023-02-15T20:05:16.405Z,92631.03
2023-02-15T20:07:44.992Z,92623.69
2023-02-15T20:10:22.696Z,92631.00
2023-02-15T20:12:49.516Z,92632.91
2023-02-15T20:15:24.602Z,92627.97
2023-02-15T20:17:51.525Z,92627.97
2023-02-15T20:20:21.245Z,92621.50
2023-02-15T20:22:49.035Z,92629.03
2023-02-15T20:25:35.888Z,92613.78
2023-02-15T20:28:02.589Z,92618.31
2023-02-15T20:30:30.842Z,92619.06
2023-02-15T20:32:57.704Z,92618.47
2023-02-15T20:35:25.669Z,92622.22
2023-02-15T20:37:53.617Z,92629.94
2023-02-15T20:40:22.185Z,92628.19
2023-02-15T20:42:48.920Z,92635.72
2023-02-15T20:45:16.704Z,92630.94
2023-02-15T20:47:48.357Z,92627.34
2023-02-15T20:50:17.348Z,92632.09
2023-02-15T20:52:44.125Z,92637.28
2023-02-15T20:55:15.901Z,92632.72
2023-02-15T20:57:42.650Z,92633.91
2023-02-15T21:00:18.977Z,92635.09
2023-02-15T21:02:47.308Z,92635.69
2023-02-15T21:05:24.159Z,92631.78
2023-02-15T21:07:51.081Z,92625.25
2023-02-15T21:10:19.760Z,92631.22
2023-02-15T21:12:46.593Z,92634.38
2023-02-15T21:15:28.213Z,92625.47
2023-02-15T21:17:55.404Z,92632.22
2023-02-15T21:20:22.194Z,92625.06
2023-02-15T21:22:48.940Z,92628.66
2023-02-15T21:25:16.036Z,92630.25
2023-02-15T21:27:43.234Z,92630.03
2023-02-15T21:30:17.065Z,92631.44
2023-02-15T21:32:43.575Z,92631.25
2023-02-15T21:35:16.602Z,92624.28
2023-02-15T21:37:43.616Z,92629.25
2023-02-15T21:40:13.297Z,92629.06
2023-02-15T21:42:58.674Z,92627.47
2023-02-15T21:45:43.855Z,92631.03
2023-02-15T21:48:10.510Z,92628.63
2023-02-15T21:50:55.760Z,92632.16
2023-02-15T21:53:28.428Z,92629.81
2023-02-15T21:55:56.115Z,92637.31
2023-02-15T21:58:26.136Z,92636.13
2023-02-15T22:00:57.659Z,92640.44
2023-02-15T22:03:25.665Z,92633.38
2023-02-15T22:05:52.580Z,92638.03
2023-02-15T22:08:19.931Z,92636.28
2023-02-15T22:10:48.073Z,92636.34
2023-02-15T22:13:31.003Z,92648.44
2023-02-15T22:15:58.040Z,92646.06
2023-02-15T22:18:26.597Z,92638.09
2023-02-15T22:20:53.562Z,92646.44
2023-02-15T22:23:20.502Z,92633.00
2023-02-15T22:25:54.764Z,92635.81
2023-02-15T22:28:23.657Z,92633.78
2023-02-15T22:30:50.367Z,92640.19
2023-02-15T22:33:24.877Z,92628.25
2023-02-15T22:35:51.912Z,92633.78
2023-02-15T22:38:18.617Z,92637.94
2023-02-15T22:40:45.230Z,92638.16
2023-02-15T22:43:25.448Z,92634.91
2023-02-15T22:45:52.200Z,92643.16
2023-02-15T22:48:20.257Z,92637.63
2023-02-15T22:50:46.900Z,92637.47
2023-02-15T22:53:13.547Z,92647.22
2023-02-15T22:55:40.245Z,92640.84
2023-02-15T22:58:06.897Z,92647.34
2023-02-15T23:00:38.614Z,92651.41
2023-02-15T23:03:16.756Z,92643.31
2023-02-15T23:05:43.466Z,92643.47
2023-02-15T23:08:11.322Z,92640.56
2023-02-15T23:10:38.071Z,92642.13
2023-02-15T23:13:23.495Z,92647.66
2023-02-15T23:15:54.542Z,92634.16
2023-02-15T23:18:22.449Z,92635.59
2023-02-15T23:21:00.678Z,92635.44
2023-02-15T23:23:35.938Z,92638.91
2023-02-15T23:26:04.517Z,92633.75
2023-02-15T23:28:34.999Z,92634.50
2023-02-15T23:31:02.642Z,92634.06
2023-02-15T23:33:31.649Z,92634.25
2023-02-15T23:35:58.416Z,92632.47
2023-02-15T23:38:27.175Z,92628.56
2023-02-15T23:41:19.088Z,92628.44
2023-02-15T23:43:52.327Z,92634.00
2023-02-15T23:46:27.957Z,92627.88
2023-02-15T23:48:54.934Z,92629.03
2023-02-15T23:51:23.015Z,92634.97
2023-02-15T23:53:49.793Z,92633.69
2023-02-15T23:56:16.449Z,92633.22
2023-02-15T23:58:44.270Z,92632.53
